sensor_id;sensor_type;location;lat;lon;timestamp;temperature;humidity
2407;DHT22;37709;53.480;9.688;2024-01-06T00:01:22;-0.40;99.90
2407;DHT22;37709;53.480;9.688;2024-01-06T00:03:50;-0.40;99.90
2407;DHT22;37709;53.480;9.688;2024-01-06T00:06:17;-0.30;99.90
2407;DHT22;37709;53.480;9.688;2024-01-06T00:08:47;-0.30;99.90
2407;DHT22;37709;53.480;9.688;2024-01-06T00:11:22;-0.30;99.90
2407;DHT22;37709;53.480;9.688;2024-01-06T00:13:49;-0.30;99.90
2407;DHT22;37709;53.480;9.688;2024-01-06T00:16:17;-0.30;99.90
2407;DHT22;37709;53.480;9.688;2024-01-06T00:18:46;-0.40;99.90
2407;DHT22;37709;53.480;9.688;2024-01-06T00:21:14;-0.40;99.90
2407;DHT22;37709;53.480;9.688;2024-01-06T00:23:43;-0.40;99.90
2407;DHT22;37709;53.480;9.688;2024-01-06T00:26:11;-0.40;99.90
2407;DHT22;37709;53.480;9.688;2024-01-06T00:28:39;-0.40;99.90
2407;DHT22;37709;53.480;9.688;2024-01-06T00:31:08;-0.40;99.90
2407;DHT22;37709;53.480;9.688;2024-01-06T00:33:37;-0.40;99.90
2407;DHT22;37709;53.480;9.688;2024-01-06T00:36:07;-0.40;99.90
2407;DHT22;37709;53.480;9.688;2024-01-06T00:38:34;-0.30;99.90
2407;DHT22;37709;53.480;9.688;2024-01-06T00:41:02;-0.40;99.90
2407;DHT22;37709;53.480;9.688;2024-01-06T00:43:31;-0.30;99.90
2407;DHT22;37709;53.480;9.688;2024-01-06T00:46:00;-0.30;99.90
2407;DHT22;37709;53.480;9.688;2024-01-06T00:48:28;-0.40;99.90
2407;DHT22;37709;53.480;9.688;2024-01-06T00:50:55;-0.40;99.90
2407;DHT22;37709;53.480;9.688;2024-01-06T00:53:23;-0.30;99.90
2407;DHT22;37709;53.480;9.688;2024-01-06T00:55:51;-0.30;99.90
2407;DHT22;37709;53.480;9.688;2024-01-06T00:58:18;-0.30;99.90
2407;DHT22;37709;53.480;9.688;2024-01-06T01:00:47;-0.30;99.90
2407;DHT22;37709;53.480;9.688;2024-01-06T01:03:14;-0.20;99.90
2407;DHT22;37709;53.480;9.688;2024-01-06T01:05:42;-0.20;99.90
2407;DHT22;37709;53.480;9.688;2024-01-06T01:08:11;-0.20;99.90
2407;DHT22;37709;53.480;9.688;2024-01-06T01:10:40;-0.20;99.90
2407;DHT22;37709;53.480;9.688;2024-01-06T01:13:09;-0.20;99.90
2407;DHT22;37709;53.480;9.688;2024-01-06T01:15:36;-0.20;99.90
2407;DHT22;37709;53.480;9.688;2024-01-06T01:18:05;-0.20;99.90
2407;DHT22;37709;53.480;9.688;2024-01-06T01:20:36;-0.20;99.90
2407;DHT22;37709;53.480;9.688;2024-01-06T01:23:04;-0.20;99.90
2407;DHT22;37709;53.480;9.688;2024-01-06T01:25:34;-0.20;99.90
2407;DHT22;37709;53.480;9.688;2024-01-06T01:28:03;-0.20;99.90
2407;DHT22;37709;53.480;9.688;2024-01-06T01:30:33;-0.20;99.90
2407;DHT22;37709;53.480;9.688;2024-01-06T01:33:04;-0.20;99.90
2407;DHT22;37709;53.480;9.688;2024-01-06T01:35:35;-0.20;99.90
2407;DHT22;37709;53.480;9.688;2024-01-06T01:38:08;-0.20;99.90
2407;DHT22;37709;53.480;9.688;2024-01-06T01:40:38;-0.20;99.90
2407;DHT22;37709;53.480;9.688;2024-01-06T01:43:19;-0.20;99.90
2407;DHT22;37709;53.480;9.688;2024-01-06T01:45:53;-0.20;99.90
2407;DHT22;37709;53.480;9.688;2024-01-06T01:48:25;-0.20;99.90
2407;DHT22;37709;53.480;9.688;2024-01-06T01:50:54;-0.20;99.90
2407;DHT22;37709;53.480;9.688;2024-01-06T01:53:23;-0.20;99.90
2407;DHT22;37709;53.480;9.688;2024-01-06T01:55:56;-0.20;99.90
2407;DHT22;37709;53.480;9.688;2024-01-06T01:58:24;-0.20;99.90
2407;DHT22;37709;53.480;9.688;2024-01-06T02:00:55;-0.20;99.90
2407;DHT22;37709;53.480;9.688;2024-01-06T02:03:25;-0.20;99.90
2407;DHT22;37709;53.480;9.688;2024-01-06T02:05:56;-0.20;99.90
2407;DHT22;37709;53.480;9.688;2024-01-06T02:08:25;-0.20;99.90
2407;DHT22;37709;53.480;9.688;2024-01-06T02:10:55;-0.20;99.90
2407;DHT22;37709;53.480;9.688;2024-01-06T02:13:35;-0.20;99.90
2407;DHT22;37709;53.480;9.688;2024-01-06T02:16:05;-0.20;99.90
2407;DHT22;37709;53.480;9.688;2024-01-06T02:18:34;-0.20;99.90
2407;DHT22;37709;53.480;9.688;2024-01-06T02:21:11;-0.20;99.90
2407;DHT22;37709;53.480;9.688;2024-01-06T02:23:45;-0.20;99.90
2407;DHT22;37709;53.480;9.688;2024-01-06T02:26:17;-0.20;99.90
2407;DHT22;37709;53.480;9.688;2024-01-06T02:28:46;-0.20;99.90
2407;DHT22;37709;53.480;9.688;2024-01-06T02:31:18;-0.20;99.90
2407;DHT22;37709;53.480;9.688;2024-01-06T02:33:47;-0.20;99.90
2407;DHT22;37709;53.480;9.688;2024-01-06T02:36:17;-0.20;99.90
2407;DHT22;37709;53.480;9.688;2024-01-06T02:38:46;-0.20;99.90
2407;DHT22;37709;53.480;9.688;2024-01-06T02:41:15;-0.20;99.90
2407;DHT22;37709;53.480;9.688;2024-01-06T02:43:49;-0.20;99.90
2407;DHT22;37709;53.480;9.688;2024-01-06T02:46:18;-0.20;99.90
2407;DHT22;37709;53.480;9.688;2024-01-06T02:48:46;-0.20;99.90
2407;DHT22;37709;53.480;9.688;2024-01-06T02:51:16;-0.20;99.90
2407;DHT22;37709;53.480;9.688;2024-01-06T02:53:45;-0.20;99.90
2407;DHT22;37709;53.480;9.688;2024-01-06T02:56:16;-0.30;99.90
2407;DHT22;37709;53.480;9.688;2024-01-06T02:58:43;-0.30;99.90
2407;DHT22;37709;53.480;9.688;2024-01-06T03:01:12;-0.30;99.90
2407;DHT22;37709;53.480;9.688;2024-01-06T03:03:40;-0.30;99.90
2407;DHT22;37709;53.480;9.688;2024-01-06T03:06:32;-0.30;99.90
2407;DHT22;37709;53.480;9.688;2024-01-06T03:09:02;-0.30;99.90
2407;DHT22;37709;53.480;9.688;2024-01-06T03:11:30;-0.40;99.90
2407;DHT22;37709;53.480;9.688;2024-01-06T03:14:00;-0.30;99.90
2407;DHT22;37709;53.480;9.688;2024-01-06T03:16:32;-0.30;99.90
2407;DHT22;37709;53.480;9.688;2024-01-06T03:19:01;-0.40;99.90
2407;DHT22;37709;53.480;9.688;2024-01-06T03:21:30;-0.40;99.90
2407;DHT22;37709;53.480;9.688;2024-01-06T03:23:58;-0.40;99.90
2407;DHT22;37709;53.480;9.688;2024-01-06T03:26:27;-0.40;99.90
2407;DHT22;37709;53.480;9.688;2024-01-06T03:28:55;-0.40;99.90
2407;DHT22;37709;53.480;9.688;2024-01-06T03:31:22;-0.40;99.90
2407;DHT22;37709;53.480;9.688;2024-01-06T03:33:51;-0.40;99.90
2407;DHT22;37709;53.480;9.688;2024-01-06T03:36:21;-0.40;99.90
2407;DHT22;37709;53.480;9.688;2024-01-06T03:38:48;-0.40;99.90
2407;DHT22;37709;53.480;9.688;2024-01-06T03:41:17;-0.40;99.90
2407;DHT22;37709;53.480;9.688;2024-01-06T03:43:45;-0.40;99.90
2407;DHT22;37709;53.480;9.688;2024-01-06T03:46:13;-0.40;99.90
2407;DHT22;37709;53.480;9.688;2024-01-06T03:48:40;-0.40;99.90
2407;DHT22;37709;53.480;9.688;2024-01-06T03:51:07;-0.40;99.90
2407;DHT22;37709;53.480;9.688;2024-01-06T03:53:36;-0.40;99.90
2407;DHT22;37709;53.480;9.688;2024-01-06T03:56:04;-0.40;99.90
2407;DHT22;37709;53.480;9.688;2024-01-06T03:58:32;-0.40;99.90
2407;DHT22;37709;53.480;9.688;2024-01-06T04:00:59;-0.50;99.90
2407;DHT22;37709;53.480;9.688;2024-01-06T04:03:27;-0.40;99.90
2407;DHT22;37709;53.480;9.688;2024-01-06T04:05:56;-0.40;99.90
2407;DHT22;37709;53.480;9.688;2024-01-06T04:08:25;-0.50;99.90
2407;DHT22;37709;53.480;9.688;2024-01-06T04:10:53;-0.50;99.90
2407;DHT22;37709;53.480;9.688;2024-01-06T04:13:20;-0.50;99.90
2407;DHT22;37709;53.480;9.688;2024-01-06T04:15:48;-0.50;99.90
2407;DHT22;37709;53.480;9.688;2024-01-06T04:18:16;-0.50;99.90
2407;DHT22;37709;53.480;9.688;2024-01-06T04:20:44;-0.50;99.90
2407;DHT22;37709;53.480;9.688;2024-01-06T04:23:12;-0.50;99.90
2407;DHT22;37709;53.480;9.688;2024-01-06T04:25:40;-0.50;99.90
2407;DHT22;37709;53.480;9.688;2024-01-06T04:28:09;-0.50;99.90
2407;DHT22;37709;53.480;9.688;2024-01-06T04:30:37;-0.50;99.90
2407;DHT22;37709;53.480;9.688;2024-01-06T04:33:06;-0.50;99.90
2407;DHT22;37709;53.480;9.688;2024-01-06T04:35:34;-0.50;99.90
2407;DHT22;37709;53.480;9.688;2024-01-06T04:38:02;-0.50;99.90
2407;DHT22;37709;53.480;9.688;2024-01-06T04:40:29;-0.50;99.90
2407;DHT22;37709;53.480;9.688;2024-01-06T04:42:57;-0.50;99.90
2407;DHT22;37709;53.480;9.688;2024-01-06T04:45:24;-0.50;99.90
2407;DHT22;37709;53.480;9.688;2024-01-06T04:47:54;-0.50;99.90
2407;DHT22;37709;53.480;9.688;2024-01-06T04:50:22;-0.50;99.90
2407;DHT22;37709;53.480;9.688;2024-01-06T04:52:49;-0.50;99.90
2407;DHT22;37709;53.480;9.688;2024-01-06T04:55:17;-0.50;99.90
2407;DHT22;37709;53.480;9.688;2024-01-06T04:57:44;-0.50;99.90
2407;DHT22;37709;53.480;9.688;2024-01-06T05:00:13;-0.50;99.90
2407;DHT22;37709;53.480;9.688;2024-01-06T05:02:41;-0.50;99.90
2407;DHT22;37709;53.480;9.688;2024-01-06T05:05:08;-0.50;99.90
2407;DHT22;37709;53.480;9.688;2024-01-06T05:07:36;-0.50;99.90
2407;DHT22;37709;53.480;9.688;2024-01-06T05:10:07;-0.50;99.90
2407;DHT22;37709;53.480;9.688;2024-01-06T05:12:34;-0.50;99.90
2407;DHT22;37709;53.480;9.688;2024-01-06T05:15:04;-0.50;99.90
2407;DHT22;37709;53.480;9.688;2024-01-06T05:17:32;-0.50;99.90
2407;DHT22;37709;53.480;9.688;2024-01-06T05:20:00;-0.50;99.90
2407;DHT22;37709;53.480;9.688;2024-01-06T05:22:28;-0.50;99.90
2407;DHT22;37709;53.480;9.688;2024-01-06T05:24:56;-0.50;99.90
2407;DHT22;37709;53.480;9.688;2024-01-06T05:27:23;-0.50;99.90
2407;DHT22;37709;53.480;9.688;2024-01-06T05:29:52;-0.50;99.90
2407;DHT22;37709;53.480;9.688;2024-01-06T05:32:20;-0.50;99.90
2407;DHT22;37709;53.480;9.688;2024-01-06T05:34:48;-0.50;99.90
2407;DHT22;37709;53.480;9.688;2024-01-06T05:37:16;-0.50;99.90
2407;DHT22;37709;53.480;9.688;2024-01-06T05:39:43;-0.50;99.90
2407;DHT22;37709;53.480;9.688;2024-01-06T05:42:11;-0.50;99.90
2407;DHT22;37709;53.480;9.688;2024-01-06T05:44:40;-0.50;99.90
2407;DHT22;37709;53.480;9.688;2024-01-06T05:47:09;-0.50;99.90
2407;DHT22;37709;53.480;9.688;2024-01-06T05:49:41;-0.50;99.90
2407;DHT22;37709;53.480;9.688;2024-01-06T05:52:11;-0.50;99.90
2407;DHT22;37709;53.480;9.688;2024-01-06T05:54:41;-0.50;99.90
2407;DHT22;37709;53.480;9.688;2024-01-06T05:57:13;-0.60;99.90
2407;DHT22;37709;53.480;9.688;2024-01-06T05:59:42;-0.50;99.90
2407;DHT22;37709;53.480;9.688;2024-01-06T06:02:10;-0.50;99.90
2407;DHT22;37709;53.480;9.688;2024-01-06T06:04:39;-0.60;99.90
2407;DHT22;37709;53.480;9.688;2024-01-06T06:07:07;-0.60;99.90
2407;DHT22;37709;53.480;9.688;2024-01-06T06:09:35;-0.60;99.90
2407;DHT22;37709;53.480;9.688;2024-01-06T06:12:03;-0.50;99.90
2407;DHT22;37709;53.480;9.688;2024-01-06T06:14:30;-0.50;99.90
2407;DHT22;37709;53.480;9.688;2024-01-06T06:17:00;-0.60;99.90
2407;DHT22;37709;53.480;9.688;2024-01-06T06:19:27;-0.60;99.90
2407;DHT22;37709;53.480;9.688;2024-01-06T06:21:56;-0.60;99.90
2407;DHT22;37709;53.480;9.688;2024-01-06T06:24:25;-0.50;99.90
2407;DHT22;37709;53.480;9.688;2024-01-06T06:26:53;-0.60;99.90
2407;DHT22;37709;53.480;9.688;2024-01-06T06:29:22;-0.60;99.90
2407;DHT22;37709;53.480;9.688;2024-01-06T06:31:50;-0.60;99.90
2407;DHT22;37709;53.480;9.688;2024-01-06T06:34:17;-0.60;99.90
2407;DHT22;37709;53.480;9.688;2024-01-06T06:36:48;-0.60;99.90
2407;DHT22;37709;53.480;9.688;2024-01-06T06:39:17;-0.60;99.90
2407;DHT22;37709;53.480;9.688;2024-01-06T06:41:47;-0.60;99.90
2407;DHT22;37709;53.480;9.688;2024-01-06T06:44:14;-0.60;99.90
2407;DHT22;37709;53.480;9.688;2024-01-06T06:46:42;-0.60;99.90
2407;DHT22;37709;53.480;9.688;2024-01-06T06:49:09;-0.60;99.90
2407;DHT22;37709;53.480;9.688;2024-01-06T06:51:36;-0.60;99.90
2407;DHT22;37709;53.480;9.688;2024-01-06T06:54:06;-0.60;99.90
2407;DHT22;37709;53.480;9.688;2024-01-06T06:56:35;-0.60;99.90
2407;DHT22;37709;53.480;9.688;2024-01-06T06:59:03;-0.60;99.90
2407;DHT22;37709;53.480;9.688;2024-01-06T07:01:33;-0.60;99.90
2407;DHT22;37709;53.480;9.688;2024-01-06T07:04:03;-0.60;99.90
2407;DHT22;37709;53.480;9.688;2024-01-06T07:06:30;-0.60;99.90
2407;DHT22;37709;53.480;9.688;2024-01-06T07:08:59;-0.60;99.90
2407;DHT22;37709;53.480;9.688;2024-01-06T07:11:27;-0.60;99.90
2407;DHT22;37709;53.480;9.688;2024-01-06T07:13:54;-0.60;99.90
2407;DHT22;37709;53.480;9.688;2024-01-06T07:16:22;-0.70;99.90
2407;DHT22;37709;53.480;9.688;2024-01-06T07:18:50;-0.70;99.90
2407;DHT22;37709;53.480;9.688;2024-01-06T07:21:17;-0.60;99.90
2407;DHT22;37709;53.480;9.688;2024-01-06T07:23:45;-0.60;99.90
2407;DHT22;37709;53.480;9.688;2024-01-06T07:26:16;-0.60;99.90
2407;DHT22;37709;53.480;9.688;2024-01-06T07:28:47;-0.60;99.90
2407;DHT22;37709;53.480;9.688;2024-01-06T07:31:15;-0.60;99.90
2407;DHT22;37709;53.480;9.688;2024-01-06T07:33:42;-0.60;99.90
2407;DHT22;37709;53.480;9.688;2024-01-06T07:36:13;-0.60;99.90
2407;DHT22;37709;53.480;9.688;2024-01-06T07:38:41;-0.70;99.90
2407;DHT22;37709;53.480;9.688;2024-01-06T07:41:08;-0.70;99.90
2407;DHT22;37709;53.480;9.688;2024-01-06T07:43:37;-0.70;99.90
2407;DHT22;37709;53.480;9.688;2024-01-06T07:46:06;-0.70;99.90
2407;DHT22;37709;53.480;9.688;2024-01-06T07:48:37;-0.70;99.90
2407;DHT22;37709;53.480;9.688;2024-01-06T07:51:32;-0.70;99.90
2407;DHT22;37709;53.480;9.688;2024-01-06T07:54:01;-0.70;99.90
2407;DHT22;37709;53.480;9.688;2024-01-06T07:56:32;-0.70;99.90
2407;DHT22;37709;53.480;9.688;2024-01-06T07:59:26;-0.70;99.90
2407;DHT22;37709;53.480;9.688;2024-01-06T08:01:53;-0.70;99.90
2407;DHT22;37709;53.480;9.688;2024-01-06T08:04:21;-0.70;99.90
2407;DHT22;37709;53.480;9.688;2024-01-06T08:06:49;-0.70;99.90
2407;DHT22;37709;53.480;9.688;2024-01-06T08:09:21;-0.60;99.90
2407;DHT22;37709;53.480;9.688;2024-01-06T08:11:50;-0.60;99.90
2407;DHT22;37709;53.480;9.688;2024-01-06T08:14:19;-0.60;99.90
2407;DHT22;37709;53.480;9.688;2024-01-06T08:16:46;-0.60;99.90
2407;DHT22;37709;53.480;9.688;2024-01-06T08:19:14;-0.60;99.90
2407;DHT22;37709;53.480;9.688;2024-01-06T08:21:41;-0.60;99.90
2407;DHT22;37709;53.480;9.688;2024-01-06T08:24:12;-0.60;99.90
2407;DHT22;37709;53.480;9.688;2024-01-06T08:26:39;-0.60;99.90
2407;DHT22;37709;53.480;9.688;2024-01-06T08:29:08;-0.60;99.90
2407;DHT22;37709;53.480;9.688;2024-01-06T08:31:37;-0.60;99.90
2407;DHT22;37709;53.480;9.688;2024-01-06T08:34:05;-0.60;99.90
2407;DHT22;37709;53.480;9.688;2024-01-06T08:36:37;-0.60;99.90
2407;DHT22;37709;53.480;9.688;2024-01-06T08:39:04;-0.60;99.90
2407;DHT22;37709;53.480;9.688;2024-01-06T08:41:35;-0.60;99.90
2407;DHT22;37709;53.480;9.688;2024-01-06T08:44:03;-0.50;99.90
2407;DHT22;37709;53.480;9.688;2024-01-06T08:46:34;-0.60;99.90
2407;DHT22;37709;53.480;9.688;2024-01-06T08:49:03;-0.50;99.90
2407;DHT22;37709;53.480;9.688;2024-01-06T08:51:32;-0.50;99.90
2407;DHT22;37709;53.480;9.688;2024-01-06T08:53:59;-0.60;99.90
2407;DHT22;37709;53.480;9.688;2024-01-06T08:56:26;-0.60;99.90
2407;DHT22;37709;53.480;9.688;2024-01-06T08:58:54;-0.60;99.90
2407;DHT22;37709;53.480;9.688;2024-01-06T09:01:22;-0.50;99.90
2407;DHT22;37709;53.480;9.688;2024-01-06T09:03:49;-0.50;99.90
2407;DHT22;37709;53.480;9.688;2024-01-06T09:06:18;-0.50;99.90
2407;DHT22;37709;53.480;9.688;2024-01-06T09:08:46;-0.60;99.90
2407;DHT22;37709;53.480;9.688;2024-01-06T09:11:15;-0.60;99.90
2407;DHT22;37709;53.480;9.688;2024-01-06T09:13:43;-0.50;99.90
2407;DHT22;37709;53.480;9.688;2024-01-06T09:16:12;-0.50;99.90
2407;DHT22;37709;53.480;9.688;2024-01-06T09:18:41;-0.50;99.90
2407;DHT22;37709;53.480;9.688;2024-01-06T09:21:09;-0.50;99.90
2407;DHT22;37709;53.480;9.688;2024-01-06T09:23:37;-0.50;99.90
2407;DHT22;37709;53.480;9.688;2024-01-06T09:26:05;-0.50;99.90
2407;DHT22;37709;53.480;9.688;2024-01-06T09:28:34;-0.50;99.90
2407;DHT22;37709;53.480;9.688;2024-01-06T09:31:03;-0.50;99.90
2407;DHT22;37709;53.480;9.688;2024-01-06T09:33:32;-0.40;99.90
2407;DHT22;37709;53.480;9.688;2024-01-06T09:36:01;-0.40;99.90
2407;DHT22;37709;53.480;9.688;2024-01-06T09:38:29;-0.40;99.90
2407;DHT22;37709;53.480;9.688;2024-01-06T09:40:56;-0.40;99.90
2407;DHT22;37709;53.480;9.688;2024-01-06T09:43:26;-0.40;99.90
2407;DHT22;37709;53.480;9.688;2024-01-06T09:46:06;-0.40;99.90
2407;DHT22;37709;53.480;9.688;2024-01-06T09:48:40;-0.40;99.90
2407;DHT22;37709;53.480;9.688;2024-01-06T09:51:11;-0.40;99.90
2407;DHT22;37709;53.480;9.688;2024-01-06T09:53:48;-0.30;99.90
2407;DHT22;37709;53.480;9.688;2024-01-06T09:56:18;-0.40;99.90
2407;DHT22;37709;53.480;9.688;2024-01-06T09:58:45;-0.30;99.90
2407;DHT22;37709;53.480;9.688;2024-01-06T10:01:13;-0.30;99.90
2407;DHT22;37709;53.480;9.688;2024-01-06T10:03:45;-0.30;99.90
2407;DHT22;37709;53.480;9.688;2024-01-06T10:06:16;-0.20;99.90
2407;DHT22;37709;53.480;9.688;2024-01-06T10:08:52;-0.20;99.90
2407;DHT22;37709;53.480;9.688;2024-01-06T10:11:22;-0.30;99.90
2407;DHT22;37709;53.480;9.688;2024-01-06T10:13:50;-0.20;99.90
2407;DHT22;37709;53.480;9.688;2024-01-06T10:16:21;-0.30;99.90
2407;DHT22;37709;53.480;9.688;2024-01-06T10:18:50;-0.30;99.90
2407;DHT22;37709;53.480;9.688;2024-01-06T10:21:22;-0.20;99.90
2407;DHT22;37709;53.480;9.688;2024-01-06T10:23:50;-0.20;99.90
2407;DHT22;37709;53.480;9.688;2024-01-06T10:26:18;-0.20;99.90
2407;DHT22;37709;53.480;9.688;2024-01-06T10:28:45;-0.30;99.90
2407;DHT22;37709;53.480;9.688;2024-01-06T10:31:14;-0.30;99.90
2407;DHT22;37709;53.480;9.688;2024-01-06T10:33:42;-0.30;99.90
2407;DHT22;37709;53.480;9.688;2024-01-06T10:36:11;-0.30;99.90
2407;DHT22;37709;53.480;9.688;2024-01-06T10:38:40;-0.30;99.90
2407;DHT22;37709;53.480;9.688;2024-01-06T10:41:07;-0.30;99.90
2407;DHT22;37709;53.480;9.688;2024-01-06T10:43:35;-0.30;99.90
2407;DHT22;37709;53.480;9.688;2024-01-06T10:46:04;-0.20;99.90
2407;DHT22;37709;53.480;9.688;2024-01-06T10:48:32;-0.20;99.90
2407;DHT22;37709;53.480;9.688;2024-01-06T10:51:04;-0.20;99.90
2407;DHT22;37709;53.480;9.688;2024-01-06T10:53:35;-0.20;99.90
2407;DHT22;37709;53.480;9.688;2024-01-06T10:56:07;-0.10;99.90
2407;DHT22;37709;53.480;9.688;2024-01-06T10:58:35;-0.20;99.90
2407;DHT22;37709;53.480;9.688;2024-01-06T11:01:09;-0.20;99.90
2407;DHT22;37709;53.480;9.688;2024-01-06T11:03:38;-0.10;99.90
2407;DHT22;37709;53.480;9.688;2024-01-06T11:06:06;-0.10;99.90
2407;DHT22;37709;53.480;9.688;2024-01-06T11:08:57;-0.10;99.90
2407;DHT22;37709;53.480;9.688;2024-01-06T11:11:27;-0.10;99.90
2407;DHT22;37709;53.480;9.688;2024-01-06T11:14:23;-0.10;99.90
2407;DHT22;37709;53.480;9.688;2024-01-06T11:16:53;-0.10;99.90
2407;DHT22;37709;53.480;9.688;2024-01-06T11:22:29;-0.10;99.90
2407;DHT22;37709;53.480;9.688;2024-01-06T11:25:07;-0.20;99.90
2407;DHT22;37709;53.480;9.688;2024-01-06T11:27:36;-0.10;99.90
2407;DHT22;37709;53.480;9.688;2024-01-06T11:30:04;-0.10;99.90
2407;DHT22;37709;53.480;9.688;2024-01-06T11:32:37;-0.10;99.90
2407;DHT22;37709;53.480;9.688;2024-01-06T11:35:10;-0.10;99.90
2407;DHT22;37709;53.480;9.688;2024-01-06T11:42:42;-0.10;99.90
2407;DHT22;37709;53.480;9.688;2024-01-06T11:45:14;-0.10;99.90
2407;DHT22;37709;53.480;9.688;2024-01-06T11:47:47;-0.20;99.90
2407;DHT22;37709;53.480;9.688;2024-01-06T11:50:17;-0.20;99.90
2407;DHT22;37709;53.480;9.688;2024-01-06T11:52:46;-0.10;99.90
2407;DHT22;37709;53.480;9.688;2024-01-06T11:55:14;-0.10;99.90
2407;DHT22;37709;53.480;9.688;2024-01-06T11:57:45;-0.10;99.90
2407;DHT22;37709;53.480;9.688;2024-01-06T12:00:13;-0.10;99.90
2407;DHT22;37709;53.480;9.688;2024-01-06T12:02:43;0.00;99.90
2407;DHT22;37709;53.480;9.688;2024-01-06T12:05:16;0.00;99.90
2407;DHT22;37709;53.480;9.688;2024-01-06T12:08:05;0.00;99.90
2407;DHT22;37709;53.480;9.688;2024-01-06T12:10:35;-0.10;99.90
2407;DHT22;37709;53.480;9.688;2024-01-06T12:13:06;-0.10;99.90
2407;DHT22;37709;53.480;9.688;2024-01-06T12:15:36;-0.10;99.90
2407;DHT22;37709;53.480;9.688;2024-01-06T12:18:11;-0.10;99.90
2407;DHT22;37709;53.480;9.688;2024-01-06T12:20:42;-0.10;99.90
2407;DHT22;37709;53.480;9.688;2024-01-06T12:23:24;-0.10;99.90
2407;DHT22;37709;53.480;9.688;2024-01-06T12:25:51;-0.10;99.90
2407;DHT22;37709;53.480;9.688;2024-01-06T12:28:20;-0.20;99.90
2407;DHT22;37709;53.480;9.688;2024-01-06T12:30:48;-0.10;99.90
2407;DHT22;37709;53.480;9.688;2024-01-06T12:33:16;-0.10;99.90
2407;DHT22;37709;53.480;9.688;2024-01-06T12:35:43;-0.20;99.90
2407;DHT22;37709;53.480;9.688;2024-01-06T12:38:12;-0.20;99.90
2407;DHT22;37709;53.480;9.688;2024-01-06T12:40:39;-0.20;99.90
2407;DHT22;37709;53.480;9.688;2024-01-06T12:43:08;-0.20;99.90
2407;DHT22;37709;53.480;9.688;2024-01-06T12:45:36;-0.20;99.90
2407;DHT22;37709;53.480;9.688;2024-01-06T12:48:10;-0.20;99.90
2407;DHT22;37709;53.480;9.688;2024-01-06T12:50:38;-0.20;99.90
2407;DHT22;37709;53.480;9.688;2024-01-06T12:53:06;-0.20;99.90
2407;DHT22;37709;53.480;9.688;2024-01-06T12:55:33;-0.20;99.90
2407;DHT22;37709;53.480;9.688;2024-01-06T12:58:00;-0.20;99.90
2407;DHT22;37709;53.480;9.688;2024-01-06T13:00:31;-0.20;99.90
2407;DHT22;37709;53.480;9.688;2024-01-06T13:03:03;-0.10;99.90
2407;DHT22;37709;53.480;9.688;2024-01-06T13:05:31;-0.20;99.90
2407;DHT22;37709;53.480;9.688;2024-01-06T13:07:59;-0.20;99.90
2407;DHT22;37709;53.480;9.688;2024-01-06T13:10:26;-0.20;99.90
2407;DHT22;37709;53.480;9.688;2024-01-06T13:12:53;-0.20;99.90
2407;DHT22;37709;53.480;9.688;2024-01-06T13:15:22;-0.20;99.90
2407;DHT22;37709;53.480;9.688;2024-01-06T13:17:50;-0.20;99.90
2407;DHT22;37709;53.480;9.688;2024-01-06T13:20:22;-0.20;99.90
2407;DHT22;37709;53.480;9.688;2024-01-06T13:22:49;-0.20;99.90
2407;DHT22;37709;53.480;9.688;2024-01-06T13:25:18;-0.20;99.90
2407;DHT22;37709;53.480;9.688;2024-01-06T13:27:47;-0.20;99.90
2407;DHT22;37709;53.480;9.688;2024-01-06T13:30:15;-0.20;99.90
2407;DHT22;37709;53.480;9.688;2024-01-06T13:32:45;-0.30;99.90
2407;DHT22;37709;53.480;9.688;2024-01-06T13:35:13;-0.30;99.90
2407;DHT22;37709;53.480;9.688;2024-01-06T13:37:40;-0.30;99.90
2407;DHT22;37709;53.480;9.688;2024-01-06T13:40:12;-0.30;99.90
2407;DHT22;37709;53.480;9.688;2024-01-06T13:43:04;-0.30;99.90
2407;DHT22;37709;53.480;9.688;2024-01-06T13:45:32;-0.30;99.90
2407;DHT22;37709;53.480;9.688;2024-01-06T13:48:00;-0.30;99.90
2407;DHT22;37709;53.480;9.688;2024-01-06T13:50:30;-0.30;99.90
2407;DHT22;37709;53.480;9.688;2024-01-06T13:52:59;-0.30;99.90
2407;DHT22;37709;53.480;9.688;2024-01-06T13:55:27;-0.30;99.90
2407;DHT22;37709;53.480;9.688;2024-01-06T13:57:57;-0.30;99.90
2407;DHT22;37709;53.480;9.688;2024-01-06T14:00:27;-0.30;99.90
2407;DHT22;37709;53.480;9.688;2024-01-06T14:02:54;-0.30;99.90
2407;DHT22;37709;53.480;9.688;2024-01-06T14:05:22;-0.30;99.90
2407;DHT22;37709;53.480;9.688;2024-01-06T14:07:49;-0.30;99.90
2407;DHT22;37709;53.480;9.688;2024-01-06T14:10:18;-0.30;99.90
2407;DHT22;37709;53.480;9.688;2024-01-06T14:12:46;-0.40;99.90
2407;DHT22;37709;53.480;9.688;2024-01-06T14:15:16;-0.40;99.90
2407;DHT22;37709;53.480;9.688;2024-01-06T14:17:46;-0.40;99.90
2407;DHT22;37709;53.480;9.688;2024-01-06T14:20:19;-0.40;99.90
2407;DHT22;37709;53.480;9.688;2024-01-06T14:22:47;-0.40;99.90
2407;DHT22;37709;53.480;9.688;2024-01-06T14:25:15;-0.40;99.90
2407;DHT22;37709;53.480;9.688;2024-01-06T14:27:46;-0.40;99.90
2407;DHT22;37709;53.480;9.688;2024-01-06T14:30:15;-0.40;99.90
2407;DHT22;37709;53.480;9.688;2024-01-06T14:32:42;-0.50;99.90
2407;DHT22;37709;53.480;9.688;2024-01-06T14:35:10;-0.50;99.90
2407;DHT22;37709;53.480;9.688;2024-01-06T14:37:39;-0.50;99.90
2407;DHT22;37709;53.480;9.688;2024-01-06T14:40:08;-0.50;99.90
2407;DHT22;37709;53.480;9.688;2024-01-06T14:42:39;-0.50;99.90
2407;DHT22;37709;53.480;9.688;2024-01-06T14:45:07;-0.50;99.90
2407;DHT22;37709;53.480;9.688;2024-01-06T14:47:35;-0.50;99.90
2407;DHT22;37709;53.480;9.688;2024-01-06T14:50:09;-0.50;99.90
2407;DHT22;37709;53.480;9.688;2024-01-06T14:52:36;-0.50;99.90
2407;DHT22;37709;53.480;9.688;2024-01-06T14:55:04;-0.50;99.90
2407;DHT22;37709;53.480;9.688;2024-01-06T14:57:33;-0.50;99.90
2407;DHT22;37709;53.480;9.688;2024-01-06T15:00:04;-0.50;99.90
2407;DHT22;37709;53.480;9.688;2024-01-06T15:02:32;-0.60;99.90
2407;DHT22;37709;53.480;9.688;2024-01-06T15:05:00;-0.60;99.90
2407;DHT22;37709;53.480;9.688;2024-01-06T15:07:28;-0.60;99.90
2407;DHT22;37709;53.480;9.688;2024-01-06T15:09:55;-0.60;99.90
2407;DHT22;37709;53.480;9.688;2024-01-06T15:12:27;-0.60;99.90
2407;DHT22;37709;53.480;9.688;2024-01-06T15:14:55;-0.60;99.90
2407;DHT22;37709;53.480;9.688;2024-01-06T15:17:22;-0.60;99.90
2407;DHT22;37709;53.480;9.688;2024-01-06T15:19:50;-0.60;99.90
2407;DHT22;37709;53.480;9.688;2024-01-06T15:22:18;-0.70;99.90
2407;DHT22;37709;53.480;9.688;2024-01-06T15:24:45;-0.70;99.90
2407;DHT22;37709;53.480;9.688;2024-01-06T15:27:25;-0.70;99.90
2407;DHT22;37709;53.480;9.688;2024-01-06T15:29:54;-0.70;99.90
2407;DHT22;37709;53.480;9.688;2024-01-06T15:32:21;-0.70;99.90
2407;DHT22;37709;53.480;9.688;2024-01-06T15:34:49;-0.70;99.90
2407;DHT22;37709;53.480;9.688;2024-01-06T15:37:16;-0.70;99.90
2407;DHT22;37709;53.480;9.688;2024-01-06T15:39:44;-0.70;99.90
2407;DHT22;37709;53.480;9.688;2024-01-06T15:42:15;-0.70;99.90
2407;DHT22;37709;53.480;9.688;2024-01-06T15:44:43;-0.70;99.90
2407;DHT22;37709;53.480;9.688;2024-01-06T15:47:13;-0.70;99.90
2407;DHT22;37709;53.480;9.688;2024-01-06T15:49:41;-0.80;99.90
2407;DHT22;37709;53.480;9.688;2024-01-06T15:52:09;-0.70;99.90
2407;DHT22;37709;53.480;9.688;2024-01-06T15:54:36;-0.70;99.90
2407;DHT22;37709;53.480;9.688;2024-01-06T15:57:03;-0.70;99.90
2407;DHT22;37709;53.480;9.688;2024-01-06T15:59:31;-0.70;99.90
2407;DHT22;37709;53.480;9.688;2024-01-06T16:02:00;-0.80;99.90
2407;DHT22;37709;53.480;9.688;2024-01-06T16:04:27;-0.80;99.90
2407;DHT22;37709;53.480;9.688;2024-01-06T16:06:56;-0.70;99.90
2407;DHT22;37709;53.480;9.688;2024-01-06T16:09:25;-0.70;99.90